28  °C
Temperature
14  °C
  Dewpoint
   Humidity
Temp | Dewpoint | Humidity
11  km/h
Wind Speed
7  mph
Wind Speed
6  kts
Wind Speed
260°
Due West

Wind Speed
Clear
Conditions
Pressure 1015.92 (hPa) - 30 (in)
Visibility 6.2 (mi) - 10.0 (km)

Current Conditions
LKLN
Location 6km (3.2mi)
Metar :LKLN 201100Z AUTO 26006KT 210V340 CAVOK 28/14 Q1016
Sat 20th July 13:00 pm

Airport
  Metar Aviation API Data Provided by https://www.checkwx.com/ CSS/SVG/PHP scripts by weather34.com © 2015-2019